Time;durP1;ratioP1;P1;durP2;ratioP2;P2;SDS_P1;SDS_P2;PMS_P1;PMS_P2;Temp;Humidity;BMP_temperature;BMP_pressure;BME280_temperature;BME280_humidity;BME280_pressure;Samples;Min_cycle;Max_cycle;Signal;HPM_P1;HPM_P2
2023/04/22 00:01:40;;;;;;;7.32;5.72;;;9.30;99.90;;;;;;5051889;28;20059;-57
2023/04/22 00:04:06;;;;;;;9.65;5.63;;;9.20;99.90;;;;;;5057234;28;20033;-58
2023/04/22 00:06:32;;;;;;;7.75;5.90;;;9.10;99.90;;;;;;5053815;28;20388;-57
2023/04/22 00:08:57;;;;;;;8.00;5.82;;;9.00;99.90;;;;;;5059632;28;20041;-57
2023/04/22 00:11:23;;;;;;;8.32;5.32;;;9.10;99.90;;;;;;5057060;28;20092;-58
2023/04/22 00:13:49;;;;;;;8.95;6.03;;;9.00;99.90;;;;;;5062791;28;20039;-57
2023/04/22 00:16:15;;;;;;;7.78;6.15;;;9.00;99.90;;;;;;5057008;28;20446;-57
2023/04/22 00:18:40;;;;;;;9.13;6.00;;;9.10;99.90;;;;;;5060553;28;20024;-58
2023/04/22 00:21:06;;;;;;;9.80;6.68;;;9.00;99.90;;;;;;5058181;28;20367;-57
2023/04/22 00:23:32;;;;;;;9.75;6.85;;;9.00;99.90;;;;;;5060222;27;20139;-57
2023/04/22 00:25:58;;;;;;;9.52;6.90;;;9.00;99.90;;;;;;5056888;28;20044;-57
2023/04/22 00:28:23;;;;;;;8.98;6.75;;;8.90;99.90;;;;;;5059835;28;20044;-57
2023/04/22 00:30:49;;;;;;;10.18;7.32;;;9.00;99.90;;;;;;5055432;28;20417;-57
2023/04/22 00:33:14;;;;;;;10.32;8.20;;;9.00;99.90;;;;;;5061774;28;20373;-58
2023/04/22 00:35:40;;;;;;;11.60;8.88;;;9.00;99.90;;;;;;5059754;28;20092;-57
2023/04/22 00:38:06;;;;;;;13.07;8.98;;;9.10;99.90;;;;;;5060850;28;20037;-57
2023/04/22 00:40:31;;;;;;;11.57;8.55;;;9.00;99.90;;;;;;5058402;28;20122;-58
2023/04/22 00:42:59;;;;;;;11.30;8.68;;;9.00;99.90;;;;;;5058766;28;20473;-57
2023/04/22 00:45:25;;;;;;;13.05;9.20;;;9.00;99.90;;;;;;5056635;27;20493;-57
2023/04/22 00:47:51;;;;;;;11.13;8.95;;;9.00;99.90;;;;;;5057022;28;20727;-57
2023/04/22 00:50:17;;;;;;;11.30;9.40;;;8.90;99.90;;;;;;5049149;28;20036;-58
2023/04/22 00:52:43;;;;;;;12.13;9.68;;;9.00;99.90;;;;;;5044439;28;20045;-57
2023/04/22 00:55:10;;;;;;;10.63;8.93;;;9.00;99.90;;;;;;5043566;28;20357;-57
2023/04/22 00:57:35;;;;;;;12.52;9.10;;;9.00;99.90;;;;;;5045143;28;20091;-57
2023/04/22 01:00:03;;;;;;;11.30;9.57;;;9.00;99.90;;;;;;5046961;28;20582;-57
2023/04/22 01:02:29;;;;;;;12.32;9.27;;;9.00;99.90;;;;;;5050783;28;20047;-57
2023/04/22 01:04:54;;;;;;;12.63;10.10;;;9.00;99.90;;;;;;5048194;28;20037;-57
2023/04/22 01:07:20;;;;;;;13.80;10.73;;;9.10;99.90;;;;;;5043160;28;20297;-57
2023/04/22 01:09:46;;;;;;;14.27;11.15;;;9.00;99.90;;;;;;5048851;28;20037;-57
2023/04/22 01:12:12;;;;;;;14.65;11.27;;;9.10;99.90;;;;;;5048066;28;20060;-58
2023/04/22 01:14:37;;;;;;;16.73;12.35;;;9.10;99.90;;;;;;5046213;28;20020;-58
2023/04/22 01:17:03;;;;;;;16.77;12.88;;;9.20;99.90;;;;;;5050107;28;20032;-57
2023/04/22 01:19:29;;;;;;;15.25;12.05;;;9.20;99.90;;;;;;5049142;28;20032;-57
2023/04/22 01:21:56;;;;;;;17.38;13.77;;;9.20;99.90;;;;;;5045032;28;20044;-58
2023/04/22 01:24:22;;;;;;;18.95;14.55;;;9.10;99.90;;;;;;5044045;28;20067;-58
2023/04/22 01:26:48;;;;;;;16.40;12.95;;;9.10;99.90;;;;;;5048943;28;20513;-58
2023/04/22 01:29:14;;;;;;;16.55;13.20;;;9.10;99.90;;;;;;5047748;28;20142;-57
2023/04/22 01:31:40;;;;;;;15.35;12.77;;;9.10;99.90;;;;;;5048599;28;20054;-58
2023/04/22 01:34:06;;;;;;;17.30;12.25;;;9.00;99.90;;;;;;5050791;28;20025;-57
2023/04/22 01:36:32;;;;;;;15.25;11.18;;;9.10;99.90;;;;;;5046382;28;20036;-57
2023/04/22 01:38:58;;;;;;;13.45;11.40;;;9.00;99.90;;;;;;5045903;28;20036;-57
2023/04/22 01:41:24;;;;;;;13.50;10.88;;;9.00;99.90;;;;;;5056205;28;20111;-57
2023/04/22 01:43:52;;;;;;;15.82;11.18;;;9.00;99.90;;;;;;5045850;28;20131;-58
2023/04/22 01:46:17;;;;;;;13.50;10.70;;;9.10;99.90;;;;;;5051366;28;20032;-57
2023/04/22 01:48:49;;;;;;;15.10;11.32;;;9.20;99.90;;;;;;5052528;28;20055;-57
2023/04/22 01:51:15;;;;;;;14.23;11.45;;;9.30;99.90;;;;;;5044657;28;20049;-57
2023/04/22 01:53:41;;;;;;;14.35;10.50;;;9.40;99.90;;;;;;5050615;28;20031;-58
2023/04/22 01:56:06;;;;;;;15.18;11.07;;;9.30;99.90;;;;;;5046877;28;20033;-58
2023/04/22 01:58:32;;;;;;;15.43;11.45;;;9.20;99.90;;;;;;5054022;28;20021;-57
2023/04/22 02:00:58;;;;;;;17.23;11.88;;;9.10;99.90;;;;;;5052056;28;20036;-57
2023/04/22 02:03:24;;;;;;;13.85;11.00;;;9.10;99.90;;;;;;5052036;28;20516;-58
2023/04/22 02:05:49;;;;;;;16.77;12.05;;;9.10;99.90;;;;;;5054521;28;20025;-58
2023/04/22 02:08:15;;;;;;;15.63;11.68;;;9.10;99.90;;;;;;5050128;28;20025;-57
2023/04/22 02:10:40;;;;;;;15.45;11.88;;;9.10;99.90;;;;;;5052152;28;20450;-58
2023/04/22 02:13:06;;;;;;;14.25;11.65;;;9.20;99.90;;;;;;5048619;28;20033;-57
2023/04/22 02:15:31;;;;;;;17.08;12.57;;;9.20;99.90;;;;;;5054606;28;20041;-58
2023/04/22 02:17:57;;;;;;;15.05;11.65;;;9.30;99.90;;;;;;5056382;28;20679;-57
2023/04/22 02:20:23;;;;;;;16.70;12.45;;;9.10;99.90;;;;;;5055858;28;20453;-57
2023/04/22 02:22:49;;;;;;;15.88;12.68;;;9.10;99.90;;;;;;5052454;28;20520;-58
2023/04/22 02:25:15;;;;;;;15.90;12.30;;;9.00;99.90;;;;;;5057694;28;20467;-58
2023/04/22 02:27:41;;;;;;;15.05;11.65;;;9.00;99.90;;;;;;5057064;28;20055;-57
2023/04/22 02:30:07;;;;;;;15.57;11.50;;;9.00;99.90;;;;;;5048928;28;20520;-56
2023/04/22 02:32:35;;;;;;;15.18;11.68;;;9.20;99.90;;;;;;5063643;28;20055;-57
2023/04/22 02:35:01;;;;;;;16.88;12.40;;;9.20;99.90;;;;;;5051159;28;20040;-58
2023/04/22 02:37:27;;;;;;;16.95;12.10;;;9.30;99.90;;;;;;5053844;28;20036;-57
2023/04/22 02:39:53;;;;;;;17.17;12.98;;;9.20;99.90;;;;;;5054622;28;20190;-57
2023/04/22 02:42:18;;;;;;;19.30;12.70;;;9.20;99.90;;;;;;5054846;28;20031;-57
2023/04/22 02:44:44;;;;;;;17.35;13.07;;;9.30;99.90;;;;;;5058133;28;20032;-57
2023/04/22 02:47:09;;;;;;;16.85;12.63;;;9.30;99.90;;;;;;5054067;28;20182;-57
2023/04/22 02:49:35;;;;;;;19.70;12.57;;;9.40;99.90;;;;;;5057533;28;20121;-57
2023/04/22 02:52:00;;;;;;;18.65;13.02;;;9.50;99.90;;;;;;5052728;28;20029;-57
2023/04/22 02:54:26;;;;;;;17.27;12.93;;;9.60;99.90;;;;;;5057447;28;20691;-57
2023/04/22 02:56:51;;;;;;;18.55;13.55;;;9.60;99.90;;;;;;5052772;28;20504;-57
2023/04/22 02:59:17;;;;;;;15.77;12.02;;;9.70;99.90;;;;;;5053130;28;20699;-57
2023/04/22 03:01:43;;;;;;;17.33;12.35;;;9.70;99.90;;;;;;5059974;28;20055;-57
2023/04/22 03:04:08;;;;;;;17.63;13.30;;;9.60;99.90;;;;;;5052165;28;20488;-57
2023/04/22 03:06:34;;;;;;;16.00;12.52;;;9.70;99.90;;;;;;5057616;28;20036;-57
2023/04/22 03:08:59;;;;;;;16.23;12.32;;;9.80;99.90;;;;;;5056076;28;20025;-57
2023/04/22 03:11:25;;;;;;;16.08;11.73;;;9.70;99.90;;;;;;5055062;28;20029;-58
2023/04/22 03:13:50;;;;;;;15.82;11.60;;;9.80;99.90;;;;;;5057138;28;20086;-57
2023/04/22 03:16:16;;;;;;;14.48;11.35;;;10.00;99.90;;;;;;5055243;28;20080;-57
2023/04/22 03:18:42;;;;;;;18.13;11.85;;;9.90;99.90;;;;;;5056401;28;20119;-57
2023/04/22 03:21:08;;;;;;;17.80;11.52;;;9.90;99.90;;;;;;5056104;28;20025;-58
2023/04/22 03:23:34;;;;;;;13.48;10.65;;;9.80;99.90;;;;;;5059355;28;20112;-58
2023/04/22 03:26:00;;;;;;;13.73;9.82;;;9.80;99.90;;;;;;5054346;28;20167;-57
2023/04/22 03:28:25;;;;;;;13.35;10.10;;;9.80;99.90;;;;;;5058204;28;20041;-57
2023/04/22 03:30:51;;;;;;;14.68;11.20;;;9.80;99.90;;;;;;5058203;28;20083;-57
2023/04/22 03:33:17;;;;;;;14.75;10.68;;;9.80;99.90;;;;;;5050206;28;20056;-57
2023/04/22 03:35:42;;;;;;;14.95;10.27;;;9.80;99.90;;;;;;5059920;28;20044;-57
2023/04/22 03:38:08;;;;;;;15.45;10.25;;;9.80;99.90;;;;;;5048840;28;20033;-58
2023/04/22 03:40:33;;;;;;;14.18;9.70;;;9.70;99.90;;;;;;5053509;28;20502;-57
2023/04/22 03:42:59;;;;;;;11.45;9.68;;;9.80;99.90;;;;;;5055740;28;20037;-57
2023/04/22 03:45:25;;;;;;;11.88;9.68;;;9.80;99.90;;;;;;5050144;28;20056;-57
2023/04/22 03:47:51;;;;;;;12.80;9.30;;;9.80;99.90;;;;;;5064037;28;20438;-57
2023/04/22 03:50:16;;;;;;;11.68;9.35;;;9.80;99.90;;;;;;5050657;28;20021;-58
2023/04/22 03:52:42;;;;;;;11.73;8.52;;;9.70;99.90;;;;;;5055370;28;20231;-57
2023/04/22 03:55:08;;;;;;;11.68;9.13;;;9.80;99.90;;;;;;5052617;28;20094;-57
2023/04/22 03:57:33;;;;;;;10.73;8.23;;;9.80;99.90;;;;;;5056232;28;20033;-57
2023/04/22 03:59:59;;;;;;;10.35;7.93;;;9.80;99.90;;;;;;5049542;28;20037;-57
2023/04/22 04:02:24;;;;;;;11.27;7.97;;;9.90;99.90;;;;;;5055034;28;20063;-57
2023/04/22 04:04:50;;;;;;;10.85;7.78;;;10.00;99.90;;;;;;5054205;28;20135;-57
2023/04/22 04:07:15;;;;;;;12.10;7.30;;;9.90;99.90;;;;;;5051959;28;20029;-57
2023/04/22 04:09:41;;;;;;;9.27;7.03;;;10.00;99.90;;;;;;5057387;28;20041;-57
2023/04/22 04:12:07;;;;;;;10.85;7.63;;;9.90;99.90;;;;;;5055345;28;20033;-55
2023/04/22 04:14:32;;;;;;;8.73;6.95;;;10.00;99.90;;;;;;5056772;28;20032;-57
2023/04/22 04:16:58;;;;;;;8.38;6.95;;;10.00;99.90;;;;;;5060671;28;21425;-57
2023/04/22 04:19:23;;;;;;;9.25;6.90;;;9.90;99.90;;;;;;5051314;28;20870;-58
2023/04/22 04:21:50;;;;;;;8.70;6.93;;;9.90;99.90;;;;;;5056842;28;20032;-58
2023/04/22 04:24:15;;;;;;;8.40;7.05;;;9.90;99.90;;;;;;5049931;28;20033;-57
2023/04/22 04:26:41;;;;;;;7.63;6.32;;;9.90;99.90;;;;;;5054281;28;20033;-57
2023/04/22 04:29:07;;;;;;;8.05;6.63;;;10.00;99.90;;;;;;5056502;28;20064;-57
2023/04/22 04:31:32;;;;;;;9.32;6.22;;;10.00;99.90;;;;;;5058977;28;20037;-57
2023/04/22 04:33:59;;;;;;;7.63;6.05;;;10.10;99.90;;;;;;5056095;28;20476;-58
2023/04/22 04:36:27;;;;;;;6.90;5.40;;;10.00;99.90;;;;;;5049695;28;20112;-57
2023/04/22 04:38:53;;;;;;;7.32;6.15;;;9.90;99.90;;;;;;5055787;28;20119;-58
2023/04/22 04:41:22;;;;;;;6.80;5.93;;;10.00;99.90;;;;;;5058402;28;20043;-57
2023/04/22 04:43:49;;;;;;;6.97;5.88;;;10.00;99.90;;;;;;5060146;28;20032;-58
2023/04/22 04:46:15;;;;;;;7.65;5.90;;;10.00;99.90;;;;;;5052022;28;20032;-57
2023/04/22 04:48:41;;;;;;;7.30;6.18;;;10.10;99.90;;;;;;5055529;28;20731;-57
2023/04/22 04:51:08;;;;;;;7.60;5.82;;;10.10;99.90;;;;;;5051811;28;20035;-57
2023/04/22 04:53:33;;;;;;;7.07;5.90;;;10.20;99.90;;;;;;5048453;28;20742;-58
2023/04/22 04:55:59;;;;;;;7.60;5.55;;;10.30;99.90;;;;;;5044932;28;20033;-57
2023/04/22 04:58:25;;;;;;;7.00;5.82;;;10.40;99.90;;;;;;5047183;28;20396;-57
2023/04/22 05:00:51;;;;;;;7.95;6.18;;;10.50;99.90;;;;;;5045061;28;20388;-57
2023/04/22 05:03:16;;;;;;;7.50;5.78;;;10.50;99.90;;;;;;5045851;28;20048;-59
2023/04/22 05:05:42;;;;;;;9.57;6.55;;;10.50;99.90;;;;;;5048506;28;20045;-58
2023/04/22 05:08:07;;;;;;;8.50;5.63;;;10.50;99.90;;;;;;5042079;28;20072;-58
2023/04/22 05:10:33;;;;;;;10.30;5.88;;;10.60;99.90;;;;;;5052499;28;20535;-57
2023/04/22 05:12:58;;;;;;;6.10;5.32;;;10.60;99.90;;;;;;5045275;28;20396;-57
2023/04/22 05:15:24;;;;;;;8.57;5.40;;;10.70;99.90;;;;;;5043893;28;20048;-57
2023/04/22 05:17:50;;;;;;;8.30;5.18;;;10.80;99.90;;;;;;5045115;28;20037;-58
2023/04/22 05:20:15;;;;;;;5.93;5.30;;;10.70;99.90;;;;;;5043612;28;20115;-58
2023/04/22 05:22:42;;;;;;;7.28;5.45;;;10.80;99.90;;;;;;5046976;28;20045;-57
2023/04/22 05:25:08;;;;;;;8.23;5.72;;;10.80;99.90;;;;;;5050640;28;20037;-59
2023/04/22 05:27:34;;;;;;;6.70;5.45;;;10.80;99.90;;;;;;5046065;28;20478;-57
2023/04/22 05:29:59;;;;;;;6.72;5.20;;;10.80;99.90;;;;;;5043912;28;20037;-58
2023/04/22 05:32:25;;;;;;;8.38;5.70;;;10.80;99.90;;;;;;5053802;28;20623;-58
2023/04/22 05:34:51;;;;;;;8.32;6.10;;;10.90;99.90;;;;;;5048610;28;20222;-58
2023/04/22 05:37:16;;;;;;;10.65;6.20;;;11.00;99.90;;;;;;5051030;28;20029;-58
2023/04/22 05:39:42;;;;;;;8.10;5.20;;;11.20;99.90;;;;;;5052361;28;20047;-58
2023/04/22 05:42:07;;;;;;;5.80;4.72;;;11.20;99.90;;;;;;5054897;28;20430;-58
2023/04/22 05:44:33;;;;;;;7.28;5.20;;;11.30;99.90;;;;;;5049120;28;20108;-58
2023/04/22 05:46:59;;;;;;;8.48;5.78;;;11.20;99.90;;;;;;5052916;28;20041;-58
2023/04/22 05:49:25;;;;;;;6.93;5.25;;;11.20;99.90;;;;;;5048873;28;20128;-58
2023/04/22 05:51:50;;;;;;;8.45;5.00;;;11.30;99.90;;;;;;5057092;28;20044;-58
2023/04/22 05:54:16;;;;;;;6.43;5.40;;;11.30;99.90;;;;;;5051924;28;20025;-58
2023/04/22 05:56:41;;;;;;;5.75;5.13;;;11.30;99.90;;;;;;5052750;28;20033;-57
2023/04/22 05:59:07;;;;;;;5.45;4.65;;;11.40;99.90;;;;;;5058211;28;20033;-58
2023/04/22 06:01:33;;;;;;;7.55;5.03;;;11.40;99.90;;;;;;5056458;28;20037;-58
2023/04/22 06:03:59;;;;;;;5.78;4.85;;;11.40;99.90;;;;;;5054584;28;20115;-58
2023/04/22 06:06:25;;;;;;;6.57;5.15;;;11.50;99.90;;;;;;5057458;28;20606;-58
2023/04/22 06:08:50;;;;;;;6.28;5.00;;;11.50;99.90;;;;;;5051742;28;20139;-58
2023/04/22 06:11:16;;;;;;;6.95;5.22;;;11.50;99.90;;;;;;5052392;28;20704;-57
2023/04/22 06:13:41;;;;;;;7.03;5.28;;;11.60;99.90;;;;;;5055007;28;20521;-58
2023/04/22 06:16:07;;;;;;;6.72;4.70;;;11.70;99.90;;;;;;5049014;28;20048;-57
2023/04/22 06:18:35;;;;;;;5.88;4.63;;;11.80;99.90;;;;;;5054436;28;20040;-58
2023/04/22 06:21:00;;;;;;;5.38;4.82;;;11.80;99.90;;;;;;5054249;28;20130;-57
2023/04/22 06:23:26;;;;;;;6.65;5.00;;;11.90;99.90;;;;;;5052613;28;20501;-58
2023/04/22 06:25:51;;;;;;;5.57;4.13;;;12.10;99.90;;;;;;5053157;28;20676;-58
2023/04/22 06:28:17;;;;;;;6.05;4.50;;;12.20;99.90;;;;;;5051813;28;20048;-58
2023/04/22 06:30:43;;;;;;;9.88;4.72;;;12.40;99.90;;;;;;5053274;28;20064;-58
2023/04/22 06:33:08;;;;;;;8.23;4.43;;;12.50;99.90;;;;;;5059634;28;20032;-58
2023/04/22 06:35:34;;;;;;;7.88;4.50;;;12.60;99.90;;;;;;5057825;28;20455;-58
2023/04/22 06:37:59;;;;;;;7.43;4.30;;;12.80;99.90;;;;;;5049955;28;20037;-58
2023/04/22 06:40:25;;;;;;;4.72;4.22;;;12.80;99.90;;;;;;5087438;27;20032;-58
2023/04/22 06:42:50;;;;;;;4.97;4.28;;;12.90;99.90;;;;;;5057338;28;20045;-58
2023/04/22 06:45:16;;;;;;;6.13;4.07;;;12.90;99.90;;;;;;5053182;28;20056;-58
2023/04/22 06:47:42;;;;;;;4.57;4.18;;;13.10;99.90;;;;;;5061241;28;20036;-58
2023/04/22 06:50:08;;;;;;;7.03;4.43;;;13.20;99.90;;;;;;5053387;28;20076;-58
2023/04/22 06:52:34;;;;;;;7.43;4.95;;;13.30;99.90;;;;;;5055140;28;20650;-58
2023/04/22 06:55:02;;;;;;;7.78;4.38;;;13.30;99.90;;;;;;5057950;28;20037;-58
2023/04/22 06:57:27;;;;;;;7.97;4.68;;;13.40;99.90;;;;;;5055700;28;20029;-57
2023/04/22 06:59:53;;;;;;;5.97;4.32;;;13.60;99.90;;;;;;5054711;28;20041;-58
2023/04/22 07:02:19;;;;;;;6.38;5.20;;;13.60;99.90;;;;;;5059083;28;20094;-58
2023/04/22 07:04:44;;;;;;;7.78;4.65;;;13.70;99.90;;;;;;5058882;28;20349;-58
2023/04/22 07:07:10;;;;;;;7.85;4.80;;;13.70;99.90;;;;;;5057734;28;20025;-58
2023/04/22 07:09:35;;;;;;;7.35;4.63;;;13.80;99.90;;;;;;5062827;28;20379;-58
2023/04/22 07:12:01;;;;;;;9.05;4.57;;;13.90;99.90;;;;;;5052661;28;20348;-53
2023/04/22 07:14:27;;;;;;;7.13;4.50;;;14.00;99.90;;;;;;5055844;28;20041;-57
2023/04/22 07:16:53;;;;;;;5.65;4.47;;;14.00;99.90;;;;;;5057044;28;20042;-57
2023/04/22 07:19:19;;;;;;;19.15;14.15;;;14.10;99.90;;;;;;5052229;28;20029;-57
2023/04/22 07:21:45;;;;;;;43.33;32.75;;;14.30;99.90;;;;;;5052648;28;20119;-58
2023/04/22 07:24:12;;;;;;;6.85;4.85;;;14.30;99.90;;;;;;5054357;28;20550;-58
2023/04/22 07:26:41;;;;;;;6.97;4.22;;;14.30;99.90;;;;;;5056864;28;20036;-58
2023/04/22 07:29:07;;;;;;;5.63;4.45;;;14.50;99.90;;;;;;5058011;28;20037;-58
2023/04/22 07:31:35;;;;;;;5.68;4.50;;;14.60;99.90;;;;;;5060646;27;20718;-58
2023/04/22 07:34:00;;;;;;;6.30;5.05;;;14.60;99.90;;;;;;5059804;27;20032;-58
2023/04/22 07:36:26;;;;;;;7.00;4.32;;;14.70;99.90;;;;;;5055200;28;20020;-58
2023/04/22 07:38:52;;;;;;;4.70;4.20;;;14.70;99.90;;;;;;5053223;28;20037;-58
2023/04/22 07:41:17;;;;;;;5.32;4.40;;;14.80;99.90;;;;;;5056780;27;20103;-57
2023/04/22 07:43:43;;;;;;;6.57;4.82;;;14.80;99.90;;;;;;5059912;28;20527;-58
2023/04/22 07:46:08;;;;;;;8.00;4.45;;;14.90;99.90;;;;;;5050027;28;20088;-58
2023/04/22 07:48:35;;;;;;;6.07;4.57;;;15.00;99.90;;;;;;5060241;28;20556;-59
2023/04/22 07:51:01;;;;;;;5.47;4.60;;;15.00;99.90;;;;;;5053573;28;20489;-58
2023/04/22 07:53:26;;;;;;;6.25;4.00;;;15.10;99.90;;;;;;5060708;28;20028;-58
2023/04/22 07:55:52;;;;;;;6.50;4.70;;;15.00;99.90;;;;;;5056754;28;20040;-58
2023/04/22 07:58:17;;;;;;;6.65;4.38;;;15.10;99.90;;;;;;5058161;28;20036;-58
2023/04/22 08:00:43;;;;;;;4.95;4.07;;;15.20;99.90;;;;;;5064676;27;20536;-58
2023/04/22 08:03:08;;;;;;;5.57;4.22;;;15.30;99.90;;;;;;5059195;28;20029;-58
2023/04/22 08:05:34;;;;;;;6.78;3.85;;;15.40;99.90;;;;;;5060964;28;20653;-58
2023/04/22 08:08:00;;;;;;;6.53;4.57;;;15.40;99.90;;;;;;5055878;28;20056;-58
2023/04/22 08:10:26;;;;;;;6.00;3.72;;;15.40;99.90;;;;;;5059537;28;20036;-57
2023/04/22 08:12:51;;;;;;;9.00;4.07;;;15.60;99.90;;;;;;5058512;28;20126;-58
2023/04/22 08:15:17;;;;;;;4.72;3.55;;;15.60;99.90;;;;;;5057035;28;20040;-58
2023/04/22 08:17:43;;;;;;;5.90;3.60;;;15.70;99.90;;;;;;5066515;28;20044;-58
2023/04/22 08:20:09;;;;;;;7.55;3.50;;;15.60;99.90;;;;;;5054847;28;20521;-58
2023/04/22 08:22:35;;;;;;;4.03;3.22;;;15.70;99.90;;;;;;5066607;28;20033;-57
2023/04/22 08:25:01;;;;;;;5.30;2.90;;;15.90;99.90;;;;;;5056989;28;20127;-57
2023/04/22 08:27:27;;;;;;;4.20;2.92;;;16.00;99.90;;;;;;5054798;28;20496;-58
2023/04/22 08:29:52;;;;;;;3.75;2.60;;;16.10;99.90;;;;;;5071722;27;20074;-58
2023/04/22 08:32:18;;;;;;;6.07;3.00;;;16.10;99.90;;;;;;5059680;28;20039;-57
2023/04/22 08:34:45;;;;;;;8.25;3.03;;;16.20;99.90;;;;;;5065406;28;20647;-58
2023/04/22 08:37:11;;;;;;;3.45;2.80;;;16.40;99.90;;;;;;5054629;28;20047;-58
2023/04/22 08:39:37;;;;;;;3.97;3.10;;;16.50;99.90;;;;;;5065022;28;20067;-57
2023/04/22 08:42:02;;;;;;;4.53;2.97;;;16.40;99.90;;;;;;5057108;28;20043;-57
2023/04/22 08:44:28;;;;;;;2.95;2.58;;;16.50;99.90;;;;;;5053538;28;20070;-57
2023/04/22 08:46:55;;;;;;;4.28;2.90;;;16.50;99.90;;;;;;5047528;28;20036;-57
2023/04/22 08:49:23;;;;;;;5.15;2.95;;;16.70;99.90;;;;;;5050749;28;20077;-57
2023/04/22 08:51:49;;;;;;;4.78;2.60;;;16.70;99.90;;;;;;5050820;28;20068;-57
2023/04/22 08:54:15;;;;;;;4.68;2.88;;;16.90;99.90;;;;;;5045838;28;20079;-57
2023/04/22 08:56:43;;;;;;;6.57;2.95;;;17.10;99.90;;;;;;5042836;28;20068;-57
2023/04/22 08:59:10;;;;;;;4.88;2.72;;;17.10;99.90;;;;;;5048903;28;20119;-57
2023/04/22 09:01:38;;;;;;;3.17;2.60;;;17.00;99.90;;;;;;5046704;28;20052;-59
2023/04/22 09:04:05;;;;;;;4.05;2.60;;;17.30;99.90;;;;;;5053720;28;20044;-59
2023/04/22 09:06:32;;;;;;;5.97;2.63;;;17.20;99.90;;;;;;5045706;28;20098;-59
2023/04/22 09:08:58;;;;;;;4.68;2.78;;;17.20;99.90;;;;;;5054368;28;20377;-59
2023/04/22 09:11:29;;;;;;;5.80;2.92;;;17.30;99.90;;;;;;5056287;28;20040;-58
2023/04/22 09:13:55;;;;;;;5.18;2.70;;;17.40;99.90;;;;;;5057949;28;20047;-56
2023/04/22 09:16:20;;;;;;;3.78;2.33;;;17.50;99.90;;;;;;5058130;27;20037;-56
2023/04/22 09:18:46;;;;;;;3.47;2.42;;;17.40;99.90;;;;;;5052672;28;20048;-56
2023/04/22 09:21:12;;;;;;;3.35;2.50;;;17.50;99.90;;;;;;5057802;28;20021;-57
2023/04/22 09:24:06;;;;;;;4.00;2.97;;;17.60;99.90;;;;;;5056138;28;20036;-56
2023/04/22 09:26:32;;;;;;;5.35;2.78;;;17.60;99.90;;;;;;5059472;27;20088;-59
2023/04/22 09:28:59;;;;;;;4.70;2.58;;;17.70;99.90;;;;;;5058639;27;20041;-60
2023/04/22 09:31:26;;;;;;;4.38;2.88;;;17.70;99.90;;;;;;5059938;27;20036;-59
2023/04/22 09:33:55;;;;;;;4.03;2.70;;;17.80;99.90;;;;;;5062933;27;20032;-59
2023/04/22 09:36:27;;;;;;;3.72;3.00;;;17.80;99.90;;;;;;5064840;27;20060;-59
2023/04/22 09:38:54;;;;;;;6.28;3.15;;;17.90;99.90;;;;;;5055904;27;20516;-59
2023/04/22 09:41:32;;;;;;;6.38;3.85;;;17.90;99.90;;;;;;5052617;28;20028;-60
2023/04/22 09:43:59;;;;;;;6.65;2.75;;;18.20;99.90;;;;;;5050149;28;20543;-60
2023/04/22 09:46:26;;;;;;;5.28;2.72;;;18.30;99.90;;;;;;5051960;28;20490;-60
2023/04/22 09:48:54;;;;;;;4.60;2.70;;;18.40;99.90;;;;;;5050677;28;20036;-60
2023/04/22 09:51:20;;;;;;;3.28;2.63;;;18.40;99.90;;;;;;5050331;28;20021;-60
2023/04/22 09:54:00;;;;;;;4.13;2.97;;;18.30;99.90;;;;;;5047346;28;20210;-60
2023/04/22 09:56:49;;;;;;;4.65;2.95;;;18.30;99.90;;;;;;5068915;28;20037;-60
2023/04/22 09:59:23;;;;;;;4.18;2.70;;;18.20;99.90;;;;;;5052022;28;20067;-59
2023/04/22 10:01:52;;;;;;;4.50;2.80;;;18.30;99.90;;;;;;5050630;28;20033;-60
2023/04/22 10:04:20;;;;;;;5.05;2.92;;;18.50;99.90;;;;;;5055550;28;20041;-60
2023/04/22 10:06:47;;;;;;;4.60;2.67;;;18.60;99.90;;;;;;5055296;28;20089;-60
2023/04/22 10:09:16;;;;;;;4.32;2.70;;;18.70;99.90;;;;;;5051367;28;20028;-59
2023/04/22 10:11:42;;;;;;;3.80;3.00;;;18.60;99.90;;;;;;5052599;28;20032;-60
2023/04/22 10:14:09;;;;;;;6.80;2.60;;;18.60;99.90;;;;;;5052291;28;20083;-59
2023/04/22 10:16:38;;;;;;;4.75;2.55;;;18.50;99.90;;;;;;5051867;28;20151;-60
2023/04/22 10:19:06;;;;;;;5.13;2.72;;;18.50;99.90;;;;;;5055676;28;20039;-60
2023/04/22 10:21:33;;;;;;;4.63;2.88;;;18.70;99.90;;;;;;5054461;28;20112;-59
2023/04/22 10:23:59;;;;;;;3.53;2.45;;;18.90;99.90;;;;;;5053822;28;20048;-60
2023/04/22 10:26:58;;;;;;;4.70;2.75;;;18.90;99.90;;;;;;5052448;28;20481;-59
2023/04/22 10:29:26;;;;;;;4.85;2.80;;;19.00;99.90;;;;;;5026979;28;20496;-59
2023/04/22 10:32:04;;;;;;;4.63;2.58;;;19.10;99.90;;;;;;5054922;28;20583;-59
2023/04/22 10:34:31;;;;;;;5.28;2.50;;;19.30;99.90;;;;;;5049107;28;20024;-59
2023/04/22 10:37:06;;;;;;;3.40;2.40;;;19.30;99.90;;;;;;5050875;28;20040;-59
2023/04/22 10:39:32;;;;;;;5.78;2.60;;;19.40;99.90;;;;;;5053660;28;20128;-58
2023/04/22 10:42:11;;;;;;;4.38;2.65;;;19.90;99.90;;;;;;5052891;28;20029;-58
2023/04/22 10:44:58;;;;;;;5.00;2.60;;;20.00;99.90;;;;;;5058848;28;20028;-57
2023/04/22 10:47:28;;;;;;;4.97;2.60;;;19.80;99.90;;;;;;5057791;28;20895;-58
2023/04/22 10:50:15;;;;;;;8.15;2.90;;;19.70;99.90;;;;;;5055749;28;20465;-58
2023/04/22 10:52:42;;;;;;;6.32;2.40;;;20.20;99.90;;;;;;5059577;28;20031;-58
2023/04/22 10:55:08;;;;;;;4.85;2.60;;;20.20;99.90;;;;;;5054541;28;20120;-58
2023/04/22 10:57:42;;;;;;;6.85;2.60;;;20.20;99.90;;;;;;5054707;28;20495;-58
2023/04/22 11:00:43;;;;;;;5.93;2.75;;;20.20;99.90;;;;;;5055206;28;20248;-59
2023/04/22 11:03:11;;;;;;;5.60;3.00;;;20.20;99.90;;;;;;5059431;28;20695;-59
2023/04/22 11:05:38;;;;;;;3.97;2.17;;;20.50;99.90;;;;;;5056271;28;20039;-60
2023/04/22 11:08:19;;;;;;;4.50;2.63;;;20.30;99.90;;;;;;5056096;28;20128;-60
2023/04/22 11:10:50;;;;;;;5.88;2.80;;;20.10;99.90;;;;;;5057772;28;20119;-60
2023/04/22 11:13:18;;;;;;;4.78;2.30;;;20.40;99.90;;;;;;5060085;28;20043;-60
2023/04/22 11:15:46;;;;;;;4.45;2.65;;;20.20;99.90;;;;;;5056572;28;20040;-60
2023/04/22 11:18:24;;;;;;;6.88;2.92;;;20.10;99.90;;;;;;5058043;28;20486;-60
2023/04/22 11:20:52;;;;;;;5.18;2.70;;;20.10;99.90;;;;;;5060914;28;20045;-58
2023/04/22 11:23:25;;;;;;;5.10;2.47;;;20.10;99.90;;;;;;5050571;28;20481;-59
2023/04/22 11:25:56;;;;;;;4.57;2.38;;;20.00;99.90;;;;;;5059854;27;20044;-61
2023/04/22 11:28:22;;;;;;;4.38;2.40;;;19.90;99.90;;;;;;5056188;28;20052;-61
2023/04/22 11:30:48;;;;;;;4.72;2.75;;;20.10;99.90;;;;;;5059748;27;20135;-61
2023/04/22 11:33:17;;;;;;;4.25;2.30;;;20.10;99.90;;;;;;5066248;27;20047;-61
2023/04/22 11:35:43;;;;;;;5.50;2.70;;;20.30;99.90;;;;;;5068186;27;20460;-61
2023/04/22 11:38:09;;;;;;;5.88;2.70;;;21.10;99.90;;;;;;5066145;27;20058;-61
2023/04/22 11:40:37;;;;;;;4.28;2.47;;;20.70;99.90;;;;;;5057908;28;20031;-61
2023/04/22 11:43:04;;;;;;;7.05;2.83;;;20.70;99.90;;;;;;5053821;28;20045;-61
2023/04/22 11:45:31;;;;;;;4.95;2.33;;;20.80;99.90;;;;;;5059124;28;20118;-61
2023/04/22 11:47:57;;;;;;;3.97;2.20;;;20.50;99.90;;;;;;5065388;28;20036;-62
2023/04/22 11:50:26;;;;;;;5.68;2.50;;;20.90;99.90;;;;;;5059806;27;20103;-62
2023/04/22 11:53:03;;;;;;;5.57;2.83;;;21.40;99.90;;;;;;5057808;28;20089;-61
2023/04/22 11:55:30;;;;;;;5.13;2.35;;;21.10;99.90;;;;;;5060412;28;20037;-62
2023/04/22 11:58:06;;;;;;;4.50;2.33;;;21.00;99.90;;;;;;5059681;28;20142;-62
2023/04/22 12:00:39;;;;;;;4.45;2.50;;;20.90;99.90;;;;;;5067549;27;20048;-62
2023/04/22 12:03:14;;;;;;;;;;;21.00;99.90;;;;;;5055792;28;20037;-61
2023/04/22 12:05:45;;;;;;;6.63;2.50;;;20.90;99.90;;;;;;5061619;27;19916;-62
2023/04/22 12:08:16;;;;;;;3.08;2.33;;;21.00;99.90;;;;;;5061169;27;20033;-61
2023/04/22 12:10:54;;;;;;;4.28;2.40;;;20.90;99.90;;;;;;5059840;28;20471;-62
2023/04/22 12:13:27;;;;;;;5.75;2.33;;;21.20;99.90;;;;;;5055503;28;20041;-61
2023/04/22 12:16:03;;;;;;;6.45;2.80;;;21.20;99.90;;;;;;5061028;28;20467;-62
2023/04/22 12:18:30;;;;;;;4.95;2.80;;;21.30;99.90;;;;;;5056249;28;20043;-61
2023/04/22 12:21:10;;;;;;;5.90;2.45;;;21.20;99.90;;;;;;5050890;28;20432;-61
2023/04/22 12:23:50;;;;;;;4.68;2.45;;;21.30;99.90;;;;;;5072696;28;20035;-61
2023/04/22 12:26:17;;;;;;;3.65;2.65;;;21.40;99.90;;;;;;5051352;28;20036;-61
2023/04/22 12:28:44;;;;;;;6.05;2.60;;;21.40;99.90;;;;;;5064818;28;20040;-61
2023/04/22 12:31:11;;;;;;;5.25;2.63;;;21.10;99.90;;;;;;5046913;28;20044;-61
2023/04/22 12:33:37;;;;;;;4.63;2.65;;;21.00;99.90;;;;;;5057728;28;20613;-62
2023/04/22 12:36:03;;;;;;;4.90;2.42;;;21.10;99.90;;;;;;5052038;28;20474;-62
2023/04/22 12:38:29;;;;;;;4.68;2.45;;;21.10;99.90;;;;;;5054731;28;20047;-61
2023/04/22 12:40:55;;;;;;;3.83;2.42;;;21.10;99.90;;;;;;5052259;28;20029;-62
2023/04/22 12:43:20;;;;;;;5.15;2.85;;;21.00;99.90;;;;;;5056482;28;20029;-59
2023/04/22 12:45:46;;;;;;;3.67;2.25;;;21.00;99.90;;;;;;5057696;28;20052;-59